sensor_id;sensor_type;location;lat;lon;timestamp;temperature;humidity
8114;DHT22;4099;52.684;9.918;2023-05-01T00:03:27;4.00;99.90
8114;DHT22;4099;52.684;9.918;2023-05-01T00:08:40;3.70;99.90
8114;DHT22;4099;52.684;9.918;2023-05-01T00:14:09;3.60;99.90
8114;DHT22;4099;52.684;9.918;2023-05-01T00:19:35;3.70;99.90
8114;DHT22;4099;52.684;9.918;2023-05-01T00:24:49;3.70;99.90
8114;DHT22;4099;52.684;9.918;2023-05-01T00:30:08;3.60;99.90
8114;DHT22;4099;52.684;9.918;2023-05-01T00:35:32;3.60;99.90
8114;DHT22;4099;52.684;9.918;2023-05-01T00:40:47;3.30;99.90
8114;DHT22;4099;52.684;9.918;2023-05-01T00:46:05;3.30;99.90
8114;DHT22;4099;52.684;9.918;2023-05-01T00:51:40;3.50;99.90
8114;DHT22;4099;52.684;9.918;2023-05-01T00:57:10;3.30;99.90
8114;DHT22;4099;52.684;9.918;2023-05-01T01:08:39;3.00;99.90
8114;DHT22;4099;52.684;9.918;2023-05-01T01:14:07;3.00;99.90
8114;DHT22;4099;52.684;9.918;2023-05-01T01:38:32;3.00;99.90
8114;DHT22;4099;52.684;9.918;2023-05-01T01:44:27;2.80;99.90
8114;DHT22;4099;52.684;9.918;2023-05-01T01:56:19;2.90;99.90
8114;DHT22;4099;52.684;9.918;2023-05-01T02:02:03;2.70;99.90
8114;DHT22;4099;52.684;9.918;2023-05-01T02:20:49;3.00;99.90
8114;DHT22;4099;52.684;9.918;2023-05-01T02:26:29;2.90;99.90
8114;DHT22;4099;52.684;9.918;2023-05-01T02:32:32;2.70;99.90
8114;DHT22;4099;52.684;9.918;2023-05-01T02:43:27;2.70;99.90
8114;DHT22;4099;52.684;9.918;2023-05-01T02:48:39;2.70;99.90
8114;DHT22;4099;52.684;9.918;2023-05-01T02:53:59;2.70;99.90
8114;DHT22;4099;52.684;9.918;2023-05-01T02:59:25;2.50;99.90
8114;DHT22;4099;52.684;9.918;2023-05-01T03:04:36;2.50;99.90
8114;DHT22;4099;52.684;9.918;2023-05-01T03:09:58;2.30;99.90
8114;DHT22;4099;52.684;9.918;2023-05-01T03:15:32;2.30;99.90
8114;DHT22;4099;52.684;9.918;2023-05-01T03:33:26;2.10;99.90
8114;DHT22;4099;52.684;9.918;2023-05-01T03:39:17;2.10;99.90
8114;DHT22;4099;52.684;9.918;2023-05-01T03:45:33;2.20;99.90
8114;DHT22;4099;52.684;9.918;2023-05-01T03:57:44;2.50;99.90
8114;DHT22;4099;52.684;9.918;2023-05-01T04:03:21;2.60;99.90
8114;DHT22;4099;52.684;9.918;2023-05-01T04:09:28;2.40;99.90
8114;DHT22;4099;52.684;9.918;2023-05-01T04:15:04;2.20;99.90
8114;DHT22;4099;52.684;9.918;2023-05-01T04:28:06;2.60;99.90
8114;DHT22;4099;52.684;9.918;2023-05-01T04:33:03;2.80;99.90
8114;DHT22;4099;52.684;9.918;2023-05-01T04:39:03;2.90;99.90
8114;DHT22;4099;52.684;9.918;2023-05-01T04:45:07;2.90;99.90
8114;DHT22;4099;52.684;9.918;2023-05-01T04:56:43;3.20;99.90
8114;DHT22;4099;52.684;9.918;2023-05-01T05:01:50;3.40;99.90
8114;DHT22;4099;52.684;9.918;2023-05-01T05:07:03;3.50;99.90
8114;DHT22;4099;52.684;9.918;2023-05-01T05:12:34;3.70;99.90
8114;DHT22;4099;52.684;9.918;2023-05-01T05:17:46;3.80;99.90
8114;DHT22;4099;52.684;9.918;2023-05-01T05:22:57;4.10;99.90
8114;DHT22;4099;52.684;9.918;2023-05-01T05:28:33;4.30;99.90
8114;DHT22;4099;52.684;9.918;2023-05-01T05:34:12;4.50;99.90
8114;DHT22;4099;52.684;9.918;2023-05-01T05:40:08;5.10;99.90
8114;DHT22;4099;52.684;9.918;2023-05-01T05:45:52;5.50;99.90
8114;DHT22;4099;52.684;9.918;2023-05-01T05:51:58;5.90;99.90
8114;DHT22;4099;52.684;9.918;2023-05-01T05:57:44;6.40;99.90
8114;DHT22;4099;52.684;9.918;2023-05-01T06:03:09;6.90;99.90
8114;DHT22;4099;52.684;9.918;2023-05-01T06:08:49;7.30;99.90
8114;DHT22;4099;52.684;9.918;2023-05-01T06:14:12;7.60;99.90
8114;DHT22;4099;52.684;9.918;2023-05-01T06:20:19;8.10;99.90
8114;DHT22;4099;52.684;9.918;2023-05-01T06:25:54;8.50;99.90
8114;DHT22;4099;52.684;9.918;2023-05-01T06:32:34;8.80;99.90
8114;DHT22;4099;52.684;9.918;2023-05-01T06:38:02;9.20;99.90
8114;DHT22;4099;52.684;9.918;2023-05-01T06:43:45;9.40;99.90
8114;DHT22;4099;52.684;9.918;2023-05-01T06:49:13;10.00;97.90
8114;DHT22;4099;52.684;9.918;2023-05-01T07:00:44;10.40;96.10
8114;DHT22;4099;52.684;9.918;2023-05-01T07:06:13;10.70;95.90
8114;DHT22;4099;52.684;9.918;2023-05-01T07:11:37;11.10;94.80
8114;DHT22;4099;52.684;9.918;2023-05-01T07:17:09;11.60;94.10
8114;DHT22;4099;52.684;9.918;2023-05-01T07:22:41;11.80;93.20
8114;DHT22;4099;52.684;9.918;2023-05-01T07:27:56;12.30;93.50
8114;DHT22;4099;52.684;9.918;2023-05-01T07:33:26;12.60;92.90
8114;DHT22;4099;52.684;9.918;2023-05-01T07:44:20;12.90;91.40
8114;DHT22;4099;52.684;9.918;2023-05-01T07:49:53;13.20;90.90
8114;DHT22;4099;52.684;9.918;2023-05-01T07:55:10;13.40;90.80
8114;DHT22;4099;52.684;9.918;2023-05-01T08:00:41;13.60;91.40
8114;DHT22;4099;52.684;9.918;2023-05-01T08:06:16;14.30;90.20
8114;DHT22;4099;52.684;9.918;2023-05-01T08:11:55;14.70;88.10
8114;DHT22;4099;52.684;9.918;2023-05-01T08:17:29;15.00;89.40
8114;DHT22;4099;52.684;9.918;2023-05-01T08:23:00;15.20;85.50
8114;DHT22;4099;52.684;9.918;2023-05-01T08:28:12;15.30;85.00
8114;DHT22;4099;52.684;9.918;2023-05-01T08:33:37;15.60;85.90
8114;DHT22;4099;52.684;9.918;2023-05-01T08:38:59;15.80;86.00
8114;DHT22;4099;52.684;9.918;2023-05-01T08:44:38;16.30;83.10
8114;DHT22;4099;52.684;9.918;2023-05-01T08:50:09;16.80;79.20
8114;DHT22;4099;52.684;9.918;2023-05-01T08:55:37;16.80;80.60
8114;DHT22;4099;52.684;9.918;2023-05-01T09:06:34;17.70;77.70
8114;DHT22;4099;52.684;9.918;2023-05-01T09:12:06;17.90;77.20
8114;DHT22;4099;52.684;9.918;2023-05-01T09:17:20;18.20;78.70
8114;DHT22;4099;52.684;9.918;2023-05-01T09:23:05;18.00;75.60
8114;DHT22;4099;52.684;9.918;2023-05-01T09:28:47;18.10;75.90
8114;DHT22;4099;52.684;9.918;2023-05-01T09:34:41;18.50;78.00
8114;DHT22;4099;52.684;9.918;2023-05-01T09:40:28;19.00;78.50
8114;DHT22;4099;52.684;9.918;2023-05-01T09:45:30;19.00;72.30
8114;DHT22;4099;52.684;9.918;2023-05-01T09:51:05;19.30;73.00
8114;DHT22;4099;52.684;9.918;2023-05-01T09:56:59;18.80;76.80
8114;DHT22;4099;52.684;9.918;2023-05-01T10:02:56;19.10;74.20
8114;DHT22;4099;52.684;9.918;2023-05-01T10:08:46;19.00;75.00
8114;DHT22;4099;52.684;9.918;2023-05-01T10:14:20;20.30;73.10
8114;DHT22;4099;52.684;9.918;2023-05-01T10:19:58;21.20;72.80
8114;DHT22;4099;52.684;9.918;2023-05-01T10:26:17;21.00;71.20
8114;DHT22;4099;52.684;9.918;2023-05-01T10:31:17;22.00;70.40
8114;DHT22;4099;52.684;9.918;2023-05-01T10:37:11;21.50;69.10
8114;DHT22;4099;52.684;9.918;2023-05-01T10:54:34;21.90;67.10
8114;DHT22;4099;52.684;9.918;2023-05-01T11:00:31;22.10;67.00
8114;DHT22;4099;52.684;9.918;2023-05-01T11:06:13;22.70;64.40
8114;DHT22;4099;52.684;9.918;2023-05-01T11:11:59;23.00;63.80
8114;DHT22;4099;52.684;9.918;2023-05-01T11:18:48;22.10;62.80
8114;DHT22;4099;52.684;9.918;2023-05-01T11:23:45;22.00;60.60
8114;DHT22;4099;52.684;9.918;2023-05-01T11:29:27;21.50;59.90
8114;DHT22;4099;52.684;9.918;2023-05-01T11:34:59;21.70;63.10
8114;DHT22;4099;52.684;9.918;2023-05-01T11:41:18;21.90;62.90
8114;DHT22;4099;52.684;9.918;2023-05-01T11:58:56;23.00;59.30
8114;DHT22;4099;52.684;9.918;2023-05-01T12:04:23;23.00;60.10
8114;DHT22;4099;52.684;9.918;2023-05-01T12:09:53;22.30;57.20
8114;DHT22;4099;52.684;9.918;2023-05-01T12:15:34;23.20;57.80
8114;DHT22;4099;52.684;9.918;2023-05-01T12:21:03;23.40;59.00
8114;DHT22;4099;52.684;9.918;2023-05-01T12:26:41;23.60;58.10
8114;DHT22;4099;52.684;9.918;2023-05-01T12:32:04;24.00;57.50
8114;DHT22;4099;52.684;9.918;2023-05-01T12:37:13;23.90;54.60
8114;DHT22;4099;52.684;9.918;2023-05-01T12:42:41;24.70;61.10
8114;DHT22;4099;52.684;9.918;2023-05-01T12:48:16;25.90;53.30
8114;DHT22;4099;52.684;9.918;2023-05-01T12:53:44;25.60;47.90
8114;DHT22;4099;52.684;9.918;2023-05-01T12:59:23;23.70;47.00
8114;DHT22;4099;52.684;9.918;2023-05-01T13:05:00;23.10;50.30
8114;DHT22;4099;52.684;9.918;2023-05-01T13:10:42;23.90;50.50
8114;DHT22;4099;52.684;9.918;2023-05-01T13:16:21;24.80;44.60
8114;DHT22;4099;52.684;9.918;2023-05-01T13:21:44;25.80;48.20
8114;DHT22;4099;52.684;9.918;2023-05-01T13:26:58;28.00;39.10
8114;DHT22;4099;52.684;9.918;2023-05-01T13:37:43;29.10;29.70
8114;DHT22;4099;52.684;9.918;2023-05-01T13:42:59;30.10;28.60
8114;DHT22;4099;52.684;9.918;2023-05-01T13:48:22;30.70;27.00
8114;DHT22;4099;52.684;9.918;2023-05-01T13:53:58;29.60;27.20
8114;DHT22;4099;52.684;9.918;2023-05-01T13:59:21;29.20;27.50
8114;DHT22;4099;52.684;9.918;2023-05-01T14:05:06;27.90;24.10
8114;DHT22;4099;52.684;9.918;2023-05-01T14:10:26;28.10;27.70
8114;DHT22;4099;52.684;9.918;2023-05-01T14:15:41;28.10;27.00
8114;DHT22;4099;52.684;9.918;2023-05-01T14:21:01;27.50;27.10
8114;DHT22;4099;52.684;9.918;2023-05-01T14:26:30;26.80;27.30
8114;DHT22;4099;52.684;9.918;2023-05-01T14:31:49;28.50;27.30
8114;DHT22;4099;52.684;9.918;2023-05-01T14:37:02;28.70;27.00
8114;DHT22;4099;52.684;9.918;2023-05-01T14:42:26;27.50;25.90
8114;DHT22;4099;52.684;9.918;2023-05-01T14:47:44;28.70;26.30
8114;DHT22;4099;52.684;9.918;2023-05-01T14:52:57;28.00;26.10
8114;DHT22;4099;52.684;9.918;2023-05-01T14:58:25;25.70;30.00
8114;DHT22;4099;52.684;9.918;2023-05-01T15:03:49;23.80;29.10
8114;DHT22;4099;52.684;9.918;2023-05-01T15:09:00;22.40;30.30
8114;DHT22;4099;52.684;9.918;2023-05-01T15:14:18;22.00;30.20
8114;DHT22;4099;52.684;9.918;2023-05-01T15:19:52;21.90;31.80
8114;DHT22;4099;52.684;9.918;2023-05-01T15:25:18;22.20;33.50
8114;DHT22;4099;52.684;9.918;2023-05-01T15:30:45;22.30;29.90
8114;DHT22;4099;52.684;9.918;2023-05-01T15:35:59;22.00;29.90
8114;DHT22;4099;52.684;9.918;2023-05-01T15:41:30;21.80;31.50
8114;DHT22;4099;52.684;9.918;2023-05-01T15:46:58;21.70;30.40
8114;DHT22;4099;52.684;9.918;2023-05-01T15:52:15;21.60;29.60
8114;DHT22;4099;52.684;9.918;2023-05-01T15:57:47;21.60;30.00
8114;DHT22;4099;52.684;9.918;2023-05-01T16:03:11;21.90;29.60
8114;DHT22;4099;52.684;9.918;2023-05-01T16:08:34;22.50;31.60
8114;DHT22;4099;52.684;9.918;2023-05-01T16:14:11;24.40;32.70
8114;DHT22;4099;52.684;9.918;2023-05-01T16:19:36;26.80;29.80
8114;DHT22;4099;52.684;9.918;2023-05-01T16:25:09;26.50;28.00
8114;DHT22;4099;52.684;9.918;2023-05-01T16:30:51;24.00;29.70
8114;DHT22;4099;52.684;9.918;2023-05-01T16:36:14;25.40;29.50
8114;DHT22;4099;52.684;9.918;2023-05-01T16:41:32;26.10;28.00
8114;DHT22;4099;52.684;9.918;2023-05-01T16:46:42;25.10;30.20
8114;DHT22;4099;52.684;9.918;2023-05-01T16:52:13;23.30;30.80
8114;DHT22;4099;52.684;9.918;2023-05-01T16:57:26;21.90;32.20
8114;DHT22;4099;52.684;9.918;2023-05-01T17:02:47;21.00;35.80
8114;DHT22;4099;52.684;9.918;2023-05-01T17:14:50;19.90;37.10
8114;DHT22;4099;52.684;9.918;2023-05-01T17:19:57;19.40;39.30
8114;DHT22;4099;52.684;9.918;2023-05-01T17:25:12;19.00;42.40
8114;DHT22;4099;52.684;9.918;2023-05-01T17:30:28;18.50;43.60
8114;DHT22;4099;52.684;9.918;2023-05-01T17:36:07;18.10;47.10
8114;DHT22;4099;52.684;9.918;2023-05-01T17:41:52;17.70;43.90
8114;DHT22;4099;52.684;9.918;2023-05-01T17:47:24;17.60;47.90
8114;DHT22;4099;52.684;9.918;2023-05-01T17:52:54;17.40;49.90
8114;DHT22;4099;52.684;9.918;2023-05-01T17:58:49;17.10;52.50
8114;DHT22;4099;52.684;9.918;2023-05-01T18:04:05;16.90;54.00
8114;DHT22;4099;52.684;9.918;2023-05-01T18:10:00;16.90;54.60
8114;DHT22;4099;52.684;9.918;2023-05-01T18:15:16;16.90;57.70
8114;DHT22;4099;52.684;9.918;2023-05-01T18:20:31;16.60;65.20
8114;DHT22;4099;52.684;9.918;2023-05-01T18:25:59;16.00;99.90
8114;DHT22;4099;52.684;9.918;2023-05-01T18:31:10;15.10;99.90
8114;DHT22;4099;52.684;9.918;2023-05-01T18:36:23;14.50;99.90
8114;DHT22;4099;52.684;9.918;2023-05-01T18:41:32;14.10;99.90
8114;DHT22;4099;52.684;9.918;2023-05-01T18:46:43;14.30;99.90
8114;DHT22;4099;52.684;9.918;2023-05-01T18:52:10;14.40;99.90
8114;DHT22;4099;52.684;9.918;2023-05-01T18:57:28;13.70;99.90
8114;DHT22;4099;52.684;9.918;2023-05-01T19:02:45;13.30;99.90
8114;DHT22;4099;52.684;9.918;2023-05-01T19:08:03;13.20;99.90
8114;DHT22;4099;52.684;9.918;2023-05-01T19:13:44;13.80;99.90
8114;DHT22;4099;52.684;9.918;2023-05-01T19:25:38;13.00;99.90
8114;DHT22;4099;52.684;9.918;2023-05-01T19:30:56;12.90;99.90
8114;DHT22;4099;52.684;9.918;2023-05-01T19:36:17;12.70;99.90
8114;DHT22;4099;52.684;9.918;2023-05-01T19:41:45;12.60;99.90
8114;DHT22;4099;52.684;9.918;2023-05-01T19:46:55;12.60;99.90
8114;DHT22;4099;52.684;9.918;2023-05-01T19:52:11;12.60;99.90
8114;DHT22;4099;52.684;9.918;2023-05-01T19:57:29;12.40;99.90
8114;DHT22;4099;52.684;9.918;2023-05-01T20:02:48;12.40;99.90
8114;DHT22;4099;52.684;9.918;2023-05-01T20:07:55;12.30;99.90
8114;DHT22;4099;52.684;9.918;2023-05-01T20:13:16;12.30;99.90
8114;DHT22;4099;52.684;9.918;2023-05-01T20:18:22;12.30;99.90
8114;DHT22;4099;52.684;9.918;2023-05-01T20:23:46;12.20;99.90
8114;DHT22;4099;52.684;9.918;2023-05-01T20:34:52;12.00;99.90
8114;DHT22;4099;52.684;9.918;2023-05-01T20:40:47;11.80;99.90
8114;DHT22;4099;52.684;9.918;2023-05-01T20:46:00;11.70;99.90
8114;DHT22;4099;52.684;9.918;2023-05-01T20:57:36;11.40;99.90
8114;DHT22;4099;52.684;9.918;2023-05-01T21:03:00;11.20;99.90
8114;DHT22;4099;52.684;9.918;2023-05-01T21:08:44;11.00;99.90
8114;DHT22;4099;52.684;9.918;2023-05-01T21:14:11;10.80;99.90
8114;DHT22;4099;52.684;9.918;2023-05-01T21:19:36;10.80;99.90
8114;DHT22;4099;52.684;9.918;2023-05-01T21:24:57;10.60;99.90
8114;DHT22;4099;52.684;9.918;2023-05-01T21:30:38;10.60;99.90
8114;DHT22;4099;52.684;9.918;2023-05-01T21:36:10;10.70;99.90
8114;DHT22;4099;52.684;9.918;2023-05-01T21:47:26;10.00;99.90
8114;DHT22;4099;52.684;9.918;2023-05-01T21:53:14;9.90;99.90
8114;DHT22;4099;52.684;9.918;2023-05-01T21:58:45;9.80;99.90
8114;DHT22;4099;52.684;9.918;2023-05-01T22:04:00;9.70;99.90
8114;DHT22;4099;52.684;9.918;2023-05-01T22:09:05;9.80;99.90
8114;DHT22;4099;52.684;9.918;2023-05-01T22:14:18;9.90;99.90
8114;DHT22;4099;52.684;9.918;2023-05-01T22:19:32;9.90;99.90
8114;DHT22;4099;52.684;9.918;2023-05-01T22:24:50;9.60;99.90
8114;DHT22;4099;52.684;9.918;2023-05-01T22:30:02;9.30;99.90
8114;DHT22;4099;52.684;9.918;2023-05-01T22:35:38;9.10;99.90
8114;DHT22;4099;52.684;9.918;2023-05-01T22:40:52;9.00;99.90
8114;DHT22;4099;52.684;9.918;2023-05-01T22:46:43;9.10;99.90
8114;DHT22;4099;52.684;9.918;2023-05-01T22:51:52;9.20;99.90
8114;DHT22;4099;52.684;9.918;2023-05-01T22:56:56;9.20;99.90
8114;DHT22;4099;52.684;9.918;2023-05-01T23:02:12;9.20;99.90
8114;DHT22;4099;52.684;9.918;2023-05-01T23:07:44;9.10;99.90
8114;DHT22;4099;52.684;9.918;2023-05-01T23:13:00;9.10;99.90
8114;DHT22;4099;52.684;9.918;2023-05-01T23:23:46;9.00;99.90
8114;DHT22;4099;52.684;9.918;2023-05-01T23:28:55;9.20;99.90
8114;DHT22;4099;52.684;9.918;2023-05-01T23:34:02;9.20;99.90
8114;DHT22;4099;52.684;9.918;2023-05-01T23:39:09;9.20;99.90
8114;DHT22;4099;52.684;9.918;2023-05-01T23:44:16;9.20;99.90
8114;DHT22;4099;52.684;9.918;2023-05-01T23:49:39;9.20;99.90
8114;DHT22;4099;52.684;9.918;2023-05-01T23:54:52;9.30;99.90
